sensor_id;sensor_type;location;lat;lon;timestamp;P1;durP1;ratioP1;P2;durP2;ratioP2
36597;SDS011;22607;49.550;11.940;2023-06-24T00:02:27;7.57;;;2.47;;
36597;SDS011;22607;49.550;11.940;2023-06-24T00:04:53;6.85;;;2.20;;
36597;SDS011;22607;49.550;11.940;2023-06-24T00:07:20;7.13;;;2.25;;
36597;SDS011;22607;49.550;11.940;2023-06-24T00:09:50;6.32;;;2.20;;
36597;SDS011;22607;49.550;11.940;2023-06-24T00:12:16;7.35;;;2.22;;
36597;SDS011;22607;49.550;11.940;2023-06-24T00:14:49;6.82;;;2.50;;
36597;SDS011;22607;49.550;11.940;2023-06-24T00:17:16;6.95;;;2.30;;
36597;SDS011;22607;49.550;11.940;2023-06-24T00:19:43;6.63;;;2.45;;
36597;SDS011;22607;49.550;11.940;2023-06-24T00:22:12;6.47;;;2.25;;
36597;SDS011;22607;49.550;11.940;2023-06-24T00:24:41;6.30;;;2.17;;
36597;SDS011;22607;49.550;11.940;2023-06-24T00:27:09;6.80;;;2.30;;
36597;SDS011;22607;49.550;11.940;2023-06-24T00:29:36;6.65;;;2.25;;
36597;SDS011;22607;49.550;11.940;2023-06-24T00:32:03;8.40;;;2.60;;
36597;SDS011;22607;49.550;11.940;2023-06-24T00:34:31;8.30;;;2.65;;
36597;SDS011;22607;49.550;11.940;2023-06-24T00:36:57;6.45;;;2.60;;
36597;SDS011;22607;49.550;11.940;2023-06-24T00:39:24;7.53;;;2.97;;
36597;SDS011;22607;49.550;11.940;2023-06-24T00:41:50;6.53;;;2.38;;
36597;SDS011;22607;49.550;11.940;2023-06-24T00:44:17;6.75;;;2.60;;
36597;SDS011;22607;49.550;11.940;2023-06-24T00:46:44;6.47;;;2.50;;
36597;SDS011;22607;49.550;11.940;2023-06-24T00:49:10;8.90;;;2.42;;
36597;SDS011;22607;49.550;11.940;2023-06-24T00:51:40;7.90;;;3.20;;
36597;SDS011;22607;49.550;11.940;2023-06-24T00:54:16;6.80;;;2.30;;
36597;SDS011;22607;49.550;11.940;2023-06-24T00:56:44;7.72;;;2.70;;
36597;SDS011;22607;49.550;11.940;2023-06-24T00:59:13;7.75;;;3.25;;
36597;SDS011;22607;49.550;11.940;2023-06-24T01:01:41;7.40;;;2.92;;
36597;SDS011;22607;49.550;11.940;2023-06-24T01:04:07;8.13;;;3.95;;
36597;SDS011;22607;49.550;11.940;2023-06-24T01:06:35;7.07;;;2.75;;
36597;SDS011;22607;49.550;11.940;2023-06-24T01:09:02;7.53;;;2.67;;
36597;SDS011;22607;49.550;11.940;2023-06-24T01:11:31;8.60;;;3.00;;
36597;SDS011;22607;49.550;11.940;2023-06-24T01:13:58;9.57;;;3.53;;
36597;SDS011;22607;49.550;11.940;2023-06-24T01:19:03;7.20;;;2.80;;
36597;SDS011;22607;49.550;11.940;2023-06-24T01:39:31;8.60;;;3.88;;
36597;SDS011;22607;49.550;11.940;2023-06-24T01:42:02;8.23;;;3.55;;
36597;SDS011;22607;49.550;11.940;2023-06-24T01:44:34;9.93;;;3.88;;
36597;SDS011;22607;49.550;11.940;2023-06-24T01:47:01;10.68;;;3.80;;
36597;SDS011;22607;49.550;11.940;2023-06-24T01:49:31;9.48;;;3.78;;
36597;SDS011;22607;49.550;11.940;2023-06-24T01:51:59;8.90;;;4.13;;
36597;SDS011;22607;49.550;11.940;2023-06-24T01:54:28;10.38;;;4.05;;
36597;SDS011;22607;49.550;11.940;2023-06-24T01:56:56;10.60;;;4.30;;
36597;SDS011;22607;49.550;11.940;2023-06-24T01:59:26;9.73;;;3.88;;
36597;SDS011;22607;49.550;11.940;2023-06-24T02:01:55;9.07;;;4.05;;
36597;SDS011;22607;49.550;11.940;2023-06-24T02:04:24;9.15;;;4.10;;
36597;SDS011;22607;49.550;11.940;2023-06-24T02:06:51;10.30;;;4.57;;
36597;SDS011;22607;49.550;11.940;2023-06-24T02:09:20;8.63;;;3.80;;
36597;SDS011;22607;49.550;11.940;2023-06-24T02:11:48;8.38;;;3.75;;
36597;SDS011;22607;49.550;11.940;2023-06-24T02:14:15;9.55;;;4.45;;
36597;SDS011;22607;49.550;11.940;2023-06-24T02:16:45;11.68;;;4.25;;
36597;SDS011;22607;49.550;11.940;2023-06-24T02:19:13;9.68;;;3.72;;
36597;SDS011;22607;49.550;11.940;2023-06-24T02:21:44;8.38;;;3.50;;
36597;SDS011;22607;49.550;11.940;2023-06-24T02:24:11;10.13;;;4.53;;
36597;SDS011;22607;49.550;11.940;2023-06-24T02:26:38;8.10;;;3.83;;
36597;SDS011;22607;49.550;11.940;2023-06-24T02:29:08;9.00;;;4.30;;
36597;SDS011;22607;49.550;11.940;2023-06-24T02:31:36;10.00;;;3.75;;
36597;SDS011;22607;49.550;11.940;2023-06-24T02:34:05;7.78;;;3.50;;
36597;SDS011;22607;49.550;11.940;2023-06-24T02:36:33;8.65;;;3.90;;
36597;SDS011;22607;49.550;11.940;2023-06-24T02:38:59;8.95;;;3.85;;
36597;SDS011;22607;49.550;11.940;2023-06-24T02:41:26;8.77;;;3.60;;
36597;SDS011;22607;49.550;11.940;2023-06-24T02:43:53;8.05;;;3.58;;
36597;SDS011;22607;49.550;11.940;2023-06-24T02:46:20;8.65;;;3.25;;
36597;SDS011;22607;49.550;11.940;2023-06-24T02:48:48;9.30;;;3.90;;
36597;SDS011;22607;49.550;11.940;2023-06-24T02:51:16;6.82;;;2.88;;
36597;SDS011;22607;49.550;11.940;2023-06-24T02:53:43;10.10;;;3.80;;
36597;SDS011;22607;49.550;11.940;2023-06-24T02:56:12;8.90;;;3.58;;
36597;SDS011;22607;49.550;11.940;2023-06-24T02:58:41;8.13;;;3.65;;
36597;SDS011;22607;49.550;11.940;2023-06-24T03:01:09;7.85;;;3.40;;
36597;SDS011;22607;49.550;11.940;2023-06-24T03:03:37;8.95;;;3.72;;
36597;SDS011;22607;49.550;11.940;2023-06-24T03:06:03;8.10;;;3.47;;
36597;SDS011;22607;49.550;11.940;2023-06-24T03:08:30;8.13;;;3.60;;
36597;SDS011;22607;49.550;11.940;2023-06-24T03:10:57;8.02;;;3.40;;
36597;SDS011;22607;49.550;11.940;2023-06-24T03:13:24;8.93;;;4.00;;
36597;SDS011;22607;49.550;11.940;2023-06-24T03:15:52;8.00;;;3.47;;
36597;SDS011;22607;49.550;11.940;2023-06-24T03:18:19;7.45;;;3.33;;
36597;SDS011;22607;49.550;11.940;2023-06-24T03:20:46;9.50;;;3.83;;
36597;SDS011;22607;49.550;11.940;2023-06-24T03:23:13;9.90;;;4.85;;
36597;SDS011;22607;49.550;11.940;2023-06-24T03:25:40;8.23;;;3.40;;
36597;SDS011;22607;49.550;11.940;2023-06-24T03:28:07;8.23;;;3.40;;
36597;SDS011;22607;49.550;11.940;2023-06-24T03:30:34;7.57;;;3.20;;
36597;SDS011;22607;49.550;11.940;2023-06-24T03:33:01;7.57;;;3.13;;
36597;SDS011;22607;49.550;11.940;2023-06-24T03:35:28;10.07;;;3.92;;
36597;SDS011;22607;49.550;11.940;2023-06-24T03:37:56;8.52;;;3.80;;
36597;SDS011;22607;49.550;11.940;2023-06-24T03:40:22;9.25;;;3.90;;
36597;SDS011;22607;49.550;11.940;2023-06-24T03:42:49;8.25;;;3.50;;
36597;SDS011;22607;49.550;11.940;2023-06-24T03:45:15;9.48;;;4.20;;
36597;SDS011;22607;49.550;11.940;2023-06-24T03:47:43;8.82;;;3.53;;
36597;SDS011;22607;49.550;11.940;2023-06-24T03:50:09;8.63;;;3.90;;
36597;SDS011;22607;49.550;11.940;2023-06-24T03:52:36;9.40;;;3.97;;
36597;SDS011;22607;49.550;11.940;2023-06-24T03:55:03;7.90;;;3.70;;
36597;SDS011;22607;49.550;11.940;2023-06-24T03:57:31;8.30;;;3.80;;
36597;SDS011;22607;49.550;11.940;2023-06-24T03:59:58;8.57;;;4.13;;
36597;SDS011;22607;49.550;11.940;2023-06-24T04:02:25;8.05;;;3.42;;
36597;SDS011;22607;49.550;11.940;2023-06-24T04:04:53;7.93;;;3.15;;
36597;SDS011;22607;49.550;11.940;2023-06-24T04:07:22;9.90;;;4.03;;
36597;SDS011;22607;49.550;11.940;2023-06-24T04:09:54;8.93;;;3.40;;
36597;SDS011;22607;49.550;11.940;2023-06-24T04:12:21;8.02;;;3.65;;
36597;SDS011;22607;49.550;11.940;2023-06-24T04:14:48;7.93;;;3.40;;
36597;SDS011;22607;49.550;11.940;2023-06-24T04:17:15;10.63;;;3.90;;
36597;SDS011;22607;49.550;11.940;2023-06-24T04:19:42;8.38;;;3.25;;
36597;SDS011;22607;49.550;11.940;2023-06-24T04:22:08;7.90;;;3.55;;
36597;SDS011;22607;49.550;11.940;2023-06-24T04:24:35;9.48;;;4.90;;
36597;SDS011;22607;49.550;11.940;2023-06-24T04:27:02;10.93;;;4.05;;
36597;SDS011;22607;49.550;11.940;2023-06-24T04:29:28;10.15;;;3.85;;
36597;SDS011;22607;49.550;11.940;2023-06-24T04:31:55;8.05;;;3.83;;
36597;SDS011;22607;49.550;11.940;2023-06-24T04:34:21;7.40;;;2.97;;
36597;SDS011;22607;49.550;11.940;2023-06-24T04:36:48;8.88;;;3.80;;
36597;SDS011;22607;49.550;11.940;2023-06-24T04:39:15;8.20;;;3.75;;
36597;SDS011;22607;49.550;11.940;2023-06-24T04:41:43;8.55;;;3.70;;
36597;SDS011;22607;49.550;11.940;2023-06-24T04:44:10;7.60;;;3.40;;
36597;SDS011;22607;49.550;11.940;2023-06-24T04:46:37;8.13;;;3.90;;
36597;SDS011;22607;49.550;11.940;2023-06-24T04:49:03;8.98;;;4.28;;
36597;SDS011;22607;49.550;11.940;2023-06-24T04:51:30;8.40;;;3.97;;
36597;SDS011;22607;49.550;11.940;2023-06-24T04:53:56;8.20;;;3.50;;
36597;SDS011;22607;49.550;11.940;2023-06-24T04:56:23;8.52;;;3.65;;
36597;SDS011;22607;49.550;11.940;2023-06-24T04:58:50;8.95;;;3.40;;
36597;SDS011;22607;49.550;11.940;2023-06-24T05:01:17;7.65;;;3.20;;
36597;SDS011;22607;49.550;11.940;2023-06-24T05:03:44;7.70;;;3.38;;
36597;SDS011;22607;49.550;11.940;2023-06-24T05:06:10;8.60;;;3.63;;
36597;SDS011;22607;49.550;11.940;2023-06-24T05:08:37;8.98;;;3.90;;
36597;SDS011;22607;49.550;11.940;2023-06-24T05:11:03;8.23;;;3.67;;
36597;SDS011;22607;49.550;11.940;2023-06-24T05:13:30;8.65;;;4.03;;
36597;SDS011;22607;49.550;11.940;2023-06-24T05:15:57;9.27;;;3.25;;
36597;SDS011;22607;49.550;11.940;2023-06-24T05:18:24;7.32;;;3.17;;
36597;SDS011;22607;49.550;11.940;2023-06-24T05:20:50;7.80;;;3.50;;
36597;SDS011;22607;49.550;11.940;2023-06-24T05:23:17;8.27;;;3.70;;
36597;SDS011;22607;49.550;11.940;2023-06-24T05:25:43;8.10;;;3.38;;
36597;SDS011;22607;49.550;11.940;2023-06-24T05:28:10;8.07;;;3.80;;
36597;SDS011;22607;49.550;11.940;2023-06-24T05:30:37;8.30;;;3.95;;
36597;SDS011;22607;49.550;11.940;2023-06-24T05:33:04;9.52;;;3.00;;
36597;SDS011;22607;49.550;11.940;2023-06-24T05:35:33;8.38;;;4.05;;
36597;SDS011;22607;49.550;11.940;2023-06-24T05:38:00;8.40;;;3.80;;
36597;SDS011;22607;49.550;11.940;2023-06-24T05:40:26;8.35;;;3.85;;
36597;SDS011;22607;49.550;11.940;2023-06-24T05:42:53;7.97;;;3.25;;
36597;SDS011;22607;49.550;11.940;2023-06-24T05:45:20;9.00;;;3.40;;
36597;SDS011;22607;49.550;11.940;2023-06-24T05:47:46;7.38;;;3.00;;
36597;SDS011;22607;49.550;11.940;2023-06-24T05:50:13;8.40;;;3.85;;
36597;SDS011;22607;49.550;11.940;2023-06-24T05:52:40;7.90;;;3.75;;
36597;SDS011;22607;49.550;11.940;2023-06-24T05:55:06;9.05;;;3.70;;
36597;SDS011;22607;49.550;11.940;2023-06-24T05:57:33;8.85;;;3.67;;
36597;SDS011;22607;49.550;11.940;2023-06-24T06:00:00;8.00;;;3.40;;
36597;SDS011;22607;49.550;11.940;2023-06-24T06:02:26;8.15;;;3.15;;
36597;SDS011;22607;49.550;11.940;2023-06-24T06:04:53;8.70;;;3.95;;
36597;SDS011;22607;49.550;11.940;2023-06-24T06:07:20;8.57;;;3.60;;
36597;SDS011;22607;49.550;11.940;2023-06-24T06:09:47;8.50;;;3.55;;
36597;SDS011;22607;49.550;11.940;2023-06-24T06:12:13;9.25;;;3.35;;
36597;SDS011;22607;49.550;11.940;2023-06-24T06:14:40;8.23;;;3.53;;
36597;SDS011;22607;49.550;11.940;2023-06-24T06:17:06;9.18;;;4.20;;
36597;SDS011;22607;49.550;11.940;2023-06-24T06:19:33;8.82;;;4.10;;
36597;SDS011;22607;49.550;11.940;2023-06-24T06:21:59;10.32;;;4.70;;
36597;SDS011;22607;49.550;11.940;2023-06-24T06:24:26;9.07;;;3.67;;
36597;SDS011;22607;49.550;11.940;2023-06-24T06:26:52;9.07;;;3.63;;
36597;SDS011;22607;49.550;11.940;2023-06-24T06:29:19;8.88;;;4.13;;
36597;SDS011;22607;49.550;11.940;2023-06-24T06:31:46;9.38;;;4.53;;
36597;SDS011;22607;49.550;11.940;2023-06-24T06:34:12;8.27;;;3.78;;
36597;SDS011;22607;49.550;11.940;2023-06-24T06:36:39;10.70;;;4.80;;
36597;SDS011;22607;49.550;11.940;2023-06-24T06:39:05;7.93;;;3.00;;
36597;SDS011;22607;49.550;11.940;2023-06-24T06:41:32;8.02;;;3.35;;
36597;SDS011;22607;49.550;11.940;2023-06-24T06:43:58;8.07;;;3.65;;
36597;SDS011;22607;49.550;11.940;2023-06-24T06:46:25;8.43;;;3.95;;
36597;SDS011;22607;49.550;11.940;2023-06-24T06:48:53;8.35;;;3.53;;
36597;SDS011;22607;49.550;11.940;2023-06-24T06:51:19;9.35;;;4.03;;
36597;SDS011;22607;49.550;11.940;2023-06-24T06:53:46;7.65;;;3.25;;
36597;SDS011;22607;49.550;11.940;2023-06-24T06:56:19;9.10;;;4.00;;
36597;SDS011;22607;49.550;11.940;2023-06-24T06:58:48;8.00;;;3.20;;
36597;SDS011;22607;49.550;11.940;2023-06-24T07:01:15;8.80;;;4.20;;
36597;SDS011;22607;49.550;11.940;2023-06-24T07:03:42;8.65;;;3.30;;
36597;SDS011;22607;49.550;11.940;2023-06-24T07:06:08;7.93;;;3.55;;
36597;SDS011;22607;49.550;11.940;2023-06-24T07:08:35;6.68;;;2.60;;
36597;SDS011;22607;49.550;11.940;2023-06-24T07:11:02;8.30;;;3.20;;
36597;SDS011;22607;49.550;11.940;2023-06-24T07:13:28;8.38;;;3.60;;
36597;SDS011;22607;49.550;11.940;2023-06-24T07:15:55;8.07;;;3.50;;
36597;SDS011;22607;49.550;11.940;2023-06-24T07:18:22;9.57;;;3.42;;
36597;SDS011;22607;49.550;11.940;2023-06-24T07:20:48;7.43;;;3.08;;
36597;SDS011;22607;49.550;11.940;2023-06-24T07:23:15;8.02;;;3.25;;
36597;SDS011;22607;49.550;11.940;2023-06-24T07:25:41;8.95;;;3.40;;
36597;SDS011;22607;49.550;11.940;2023-06-24T07:28:08;7.53;;;3.45;;
36597;SDS011;22607;49.550;11.940;2023-06-24T07:30:35;8.02;;;3.53;;
36597;SDS011;22607;49.550;11.940;2023-06-24T07:33:02;8.43;;;3.35;;
36597;SDS011;22607;49.550;11.940;2023-06-24T07:35:32;8.07;;;3.58;;
36597;SDS011;22607;49.550;11.940;2023-06-24T07:38:01;8.77;;;3.58;;
36597;SDS011;22607;49.550;11.940;2023-06-24T07:40:28;8.05;;;3.35;;
36597;SDS011;22607;49.550;11.940;2023-06-24T07:42:54;9.30;;;4.15;;
36597;SDS011;22607;49.550;11.940;2023-06-24T07:45:21;7.70;;;3.45;;
36597;SDS011;22607;49.550;11.940;2023-06-24T07:50:18;9.02;;;3.17;;
36597;SDS011;22607;49.550;11.940;2023-06-24T07:52:45;7.55;;;3.20;;
36597;SDS011;22607;49.550;11.940;2023-06-24T07:55:11;9.45;;;3.42;;
36597;SDS011;22607;49.550;11.940;2023-06-24T07:57:38;7.50;;;3.03;;
36597;SDS011;22607;49.550;11.940;2023-06-24T08:00:07;8.18;;;3.42;;
36597;SDS011;22607;49.550;11.940;2023-06-24T08:02:37;9.75;;;3.65;;
36597;SDS011;22607;49.550;11.940;2023-06-24T08:05:04;8.25;;;3.13;;
36597;SDS011;22607;49.550;11.940;2023-06-24T08:07:31;8.00;;;3.65;;
36597;SDS011;22607;49.550;11.940;2023-06-24T08:09:57;7.72;;;3.33;;
36597;SDS011;22607;49.550;11.940;2023-06-24T08:12:24;8.35;;;3.08;;
36597;SDS011;22607;49.550;11.940;2023-06-24T08:14:50;7.75;;;3.25;;
36597;SDS011;22607;49.550;11.940;2023-06-24T08:17:17;8.88;;;3.13;;
36597;SDS011;22607;49.550;11.940;2023-06-24T08:19:43;7.55;;;2.90;;
36597;SDS011;22607;49.550;11.940;2023-06-24T08:22:10;8.43;;;2.70;;
36597;SDS011;22607;49.550;11.940;2023-06-24T08:24:39;9.02;;;2.85;;
36597;SDS011;22607;49.550;11.940;2023-06-24T08:27:06;9.18;;;3.30;;
36597;SDS011;22607;49.550;11.940;2023-06-24T08:29:35;7.10;;;2.75;;
36597;SDS011;22607;49.550;11.940;2023-06-24T08:32:04;8.48;;;3.35;;
36597;SDS011;22607;49.550;11.940;2023-06-24T08:34:33;8.10;;;2.67;;
36597;SDS011;22607;49.550;11.940;2023-06-24T08:37:00;6.82;;;2.38;;
36597;SDS011;22607;49.550;11.940;2023-06-24T08:39:26;6.30;;;2.30;;
36597;SDS011;22607;49.550;11.940;2023-06-24T08:41:53;7.47;;;2.45;;
36597;SDS011;22607;49.550;11.940;2023-06-24T08:44:21;8.38;;;3.17;;
36597;SDS011;22607;49.550;11.940;2023-06-24T08:46:48;6.97;;;2.55;;
36597;SDS011;22607;49.550;11.940;2023-06-24T08:49:17;8.05;;;2.80;;
36597;SDS011;22607;49.550;11.940;2023-06-24T08:51:54;7.68;;;2.72;;
36597;SDS011;22607;49.550;11.940;2023-06-24T08:54:30;6.68;;;2.50;;
36597;SDS011;22607;49.550;11.940;2023-06-24T08:56:59;7.20;;;2.53;;
36597;SDS011;22607;49.550;11.940;2023-06-24T08:59:27;5.80;;;1.98;;
36597;SDS011;22607;49.550;11.940;2023-06-24T09:01:55;7.88;;;3.17;;
36597;SDS011;22607;49.550;11.940;2023-06-24T09:04:22;6.72;;;2.53;;
36597;SDS011;22607;49.550;11.940;2023-06-24T09:06:48;7.38;;;2.40;;
36597;SDS011;22607;49.550;11.940;2023-06-24T09:09:21;7.20;;;2.70;;
36597;SDS011;22607;49.550;11.940;2023-06-24T09:11:53;6.28;;;2.60;;
36597;SDS011;22607;49.550;11.940;2023-06-24T09:14:21;8.20;;;2.60;;
36597;SDS011;22607;49.550;11.940;2023-06-24T09:16:53;7.03;;;2.38;;
36597;SDS011;22607;49.550;11.940;2023-06-24T09:19:21;7.45;;;2.70;;
36597;SDS011;22607;49.550;11.940;2023-06-24T09:21:49;7.00;;;2.40;;
36597;SDS011;22607;49.550;11.940;2023-06-24T09:24:16;7.03;;;2.40;;
36597;SDS011;22607;49.550;11.940;2023-06-24T09:26:43;6.57;;;2.65;;
36597;SDS011;22607;49.550;11.940;2023-06-24T09:29:13;7.32;;;2.42;;
36597;SDS011;22607;49.550;11.940;2023-06-24T09:31:47;8.15;;;2.65;;
36597;SDS011;22607;49.550;11.940;2023-06-24T09:34:15;6.35;;;2.13;;
36597;SDS011;22607;49.550;11.940;2023-06-24T09:36:42;6.22;;;2.28;;
36597;SDS011;22607;49.550;11.940;2023-06-24T09:39:11;6.20;;;2.30;;
36597;SDS011;22607;49.550;11.940;2023-06-24T09:41:55;6.32;;;2.30;;
36597;SDS011;22607;49.550;11.940;2023-06-24T09:44:25;6.35;;;2.42;;
36597;SDS011;22607;49.550;11.940;2023-06-24T09:46:56;6.63;;;2.58;;
36597;SDS011;22607;49.550;11.940;2023-06-24T09:49:23;6.00;;;2.17;;
36597;SDS011;22607;49.550;11.940;2023-06-24T09:51:50;7.93;;;2.60;;
36597;SDS011;22607;49.550;11.940;2023-06-24T09:54:30;6.60;;;2.25;;
36597;SDS011;22607;49.550;11.940;2023-06-24T09:57:01;6.45;;;2.55;;
36597;SDS011;22607;49.550;11.940;2023-06-24T09:59:30;6.35;;;2.38;;
36597;SDS011;22607;49.550;11.940;2023-06-24T10:01:59;6.70;;;2.22;;
36597;SDS011;22607;49.550;11.940;2023-06-24T10:04:26;6.38;;;2.30;;
36597;SDS011;22607;49.550;11.940;2023-06-24T10:06:54;6.28;;;2.28;;
36597;SDS011;22607;49.550;11.940;2023-06-24T10:09:21;6.28;;;2.03;;
36597;SDS011;22607;49.550;11.940;2023-06-24T10:11:48;6.85;;;2.10;;
36597;SDS011;22607;49.550;11.940;2023-06-24T10:14:15;6.68;;;2.25;;
36597;SDS011;22607;49.550;11.940;2023-06-24T10:16:42;6.15;;;2.17;;
36597;SDS011;22607;49.550;11.940;2023-06-24T10:19:09;6.80;;;2.33;;
36597;SDS011;22607;49.550;11.940;2023-06-24T10:21:52;6.13;;;2.30;;
36597;SDS011;22607;49.550;11.940;2023-06-24T10:24:33;7.80;;;2.47;;
36597;SDS011;22607;49.550;11.940;2023-06-24T10:29:32;5.78;;;1.98;;
36597;SDS011;22607;49.550;11.940;2023-06-24T10:34:55;6.30;;;2.40;;
36597;SDS011;22607;49.550;11.940;2023-06-24T10:37:23;6.60;;;2.42;;
36597;SDS011;22607;49.550;11.940;2023-06-24T10:47:56;6.22;;;2.10;;
36597;SDS011;22607;49.550;11.940;2023-06-24T10:50:23;6.65;;;2.30;;
36597;SDS011;22607;49.550;11.940;2023-06-24T10:52:51;6.05;;;1.90;;
36597;SDS011;22607;49.550;11.940;2023-06-24T10:55:23;7.20;;;2.45;;
36597;SDS011;22607;49.550;11.940;2023-06-24T10:57:54;6.32;;;2.30;;
36597;SDS011;22607;49.550;11.940;2023-06-24T11:00:37;5.53;;;2.10;;
36597;SDS011;22607;49.550;11.940;2023-06-24T11:03:10;6.68;;;2.20;;
36597;SDS011;22607;49.550;11.940;2023-06-24T11:05:42;6.68;;;2.15;;
36597;SDS011;22607;49.550;11.940;2023-06-24T11:08:09;5.85;;;2.08;;
36597;SDS011;22607;49.550;11.940;2023-06-24T11:10:43;5.80;;;1.98;;
36597;SDS011;22607;49.550;11.940;2023-06-24T11:13:14;6.18;;;2.28;;
36597;SDS011;22607;49.550;11.940;2023-06-24T11:15:41;7.05;;;2.40;;
36597;SDS011;22607;49.550;11.940;2023-06-24T11:18:09;5.78;;;2.22;;
36597;SDS011;22607;49.550;11.940;2023-06-24T11:20:39;5.67;;;1.90;;
36597;SDS011;22607;49.550;11.940;2023-06-24T11:23:09;9.13;;;2.45;;
36597;SDS011;22607;49.550;11.940;2023-06-24T11:25:39;7.03;;;2.33;;
36597;SDS011;22607;49.550;11.940;2023-06-24T11:28:40;7.20;;;2.10;;
36597;SDS011;22607;49.550;11.940;2023-06-24T11:31:06;7.82;;;2.42;;
36597;SDS011;22607;49.550;11.940;2023-06-24T11:33:33;5.80;;;2.28;;
36597;SDS011;22607;49.550;11.940;2023-06-24T11:36:00;6.20;;;2.05;;
36597;SDS011;22607;49.550;11.940;2023-06-24T11:38:27;7.05;;;2.38;;
36597;SDS011;22607;49.550;11.940;2023-06-24T11:40:58;7.22;;;2.33;;
36597;SDS011;22607;49.550;11.940;2023-06-24T11:43:27;5.93;;;2.08;;
36597;SDS011;22607;49.550;11.940;2023-06-24T11:45:53;6.20;;;2.22;;
36597;SDS011;22607;49.550;11.940;2023-06-24T11:48:20;6.13;;;2.22;;
36597;SDS011;22607;49.550;11.940;2023-06-24T11:50:52;6.55;;;2.38;;
36597;SDS011;22607;49.550;11.940;2023-06-24T11:53:30;6.03;;;2.13;;
36597;SDS011;22607;49.550;11.940;2023-06-24T11:56:06;6.00;;;2.15;;
36597;SDS011;22607;49.550;11.940;2023-06-24T11:58:34;6.90;;;2.28;;
36597;SDS011;22607;49.550;11.940;2023-06-24T12:01:02;5.70;;;2.00;;
36597;SDS011;22607;49.550;11.940;2023-06-24T12:03:29;6.03;;;2.20;;
36597;SDS011;22607;49.550;11.940;2023-06-24T12:05:57;6.60;;;2.45;;
36597;SDS011;22607;49.550;11.940;2023-06-24T12:08:23;6.53;;;2.50;;
36597;SDS011;22607;49.550;11.940;2023-06-24T12:10:52;6.32;;;2.25;;
36597;SDS011;22607;49.550;11.940;2023-06-24T12:13:19;7.10;;;2.10;;
36597;SDS011;22607;49.550;11.940;2023-06-24T12:15:46;8.50;;;2.72;;
36597;SDS011;22607;49.550;11.940;2023-06-24T12:18:13;7.60;;;2.85;;
36597;SDS011;22607;49.550;11.940;2023-06-24T12:20:40;7.55;;;2.70;;
36597;SDS011;22607;49.550;11.940;2023-06-24T12:23:07;7.05;;;2.97;;
36597;SDS011;22607;49.550;11.940;2023-06-24T12:25:34;8.63;;;2.65;;
36597;SDS011;22607;49.550;11.940;2023-06-24T12:28:00;6.97;;;2.80;;
36597;SDS011;22607;49.550;11.940;2023-06-24T12:30:27;6.68;;;2.70;;
36597;SDS011;22607;49.550;11.940;2023-06-24T12:32:54;7.03;;;2.90;;
36597;SDS011;22607;49.550;11.940;2023-06-24T12:35:22;8.05;;;3.13;;
36597;SDS011;22607;49.550;11.940;2023-06-24T12:37:52;6.95;;;2.70;;
36597;SDS011;22607;49.550;11.940;2023-06-24T12:40:21;7.25;;;2.78;;
36597;SDS011;22607;49.550;11.940;2023-06-24T12:42:48;7.82;;;2.97;;
36597;SDS011;22607;49.550;11.940;2023-06-24T12:45:15;8.77;;;2.92;;
36597;SDS011;22607;49.550;11.940;2023-06-24T12:47:41;6.85;;;2.58;;
36597;SDS011;22607;49.550;11.940;2023-06-24T12:50:09;7.20;;;2.90;;
36597;SDS011;22607;49.550;11.940;2023-06-24T12:52:35;7.40;;;3.13;;
36597;SDS011;22607;49.550;11.940;2023-06-24T12:55:04;7.35;;;2.88;;
36597;SDS011;22607;49.550;11.940;2023-06-24T12:57:33;7.55;;;2.97;;
36597;SDS011;22607;49.550;11.940;2023-06-24T13:00:00;7.53;;;3.17;;
36597;SDS011;22607;49.550;11.940;2023-06-24T13:02:26;7.82;;;3.03;;
36597;SDS011;22607;49.550;11.940;2023-06-24T13:04:53;7.68;;;3.10;;
36597;SDS011;22607;49.550;11.940;2023-06-24T13:07:19;8.10;;;3.20;;
36597;SDS011;22607;49.550;11.940;2023-06-24T13:09:46;7.22;;;3.10;;
36597;SDS011;22607;49.550;11.940;2023-06-24T13:12:12;7.13;;;2.70;;
36597;SDS011;22607;49.550;11.940;2023-06-24T13:14:39;7.32;;;2.83;;
36597;SDS011;22607;49.550;11.940;2023-06-24T13:17:06;7.22;;;3.05;;
36597;SDS011;22607;49.550;11.940;2023-06-24T13:19:33;7.43;;;3.30;;
36597;SDS011;22607;49.550;11.940;2023-06-24T13:22:00;6.63;;;2.70;;
36597;SDS011;22607;49.550;11.940;2023-06-24T13:24:27;8.60;;;3.20;;
36597;SDS011;22607;49.550;11.940;2023-06-24T13:26:53;9.88;;;3.75;;
36597;SDS011;22607;49.550;11.940;2023-06-24T13:29:20;7.95;;;3.20;;
36597;SDS011;22607;49.550;11.940;2023-06-24T13:31:46;7.28;;;3.13;;
36597;SDS011;22607;49.550;11.940;2023-06-24T13:34:13;8.98;;;3.15;;
36597;SDS011;22607;49.550;11.940;2023-06-24T13:36:40;8.43;;;3.55;;
36597;SDS011;22607;49.550;11.940;2023-06-24T13:39:07;8.48;;;2.80;;
36597;SDS011;22607;49.550;11.940;2023-06-24T13:41:37;7.45;;;3.30;;
36597;SDS011;22607;49.550;11.940;2023-06-24T13:44:04;7.90;;;3.25;;
36597;SDS011;22607;49.550;11.940;2023-06-24T13:46:31;8.05;;;3.40;;
36597;SDS011;22607;49.550;11.940;2023-06-24T13:48:58;6.72;;;2.75;;
36597;SDS011;22607;49.550;11.940;2023-06-24T13:51:30;7.65;;;3.13;;
36597;SDS011;22607;49.550;11.940;2023-06-24T13:53:56;7.20;;;3.22;;
36597;SDS011;22607;49.550;11.940;2023-06-24T13:56:23;7.13;;;3.05;;
36597;SDS011;22607;49.550;11.940;2023-06-24T13:58:51;6.93;;;3.08;;
36597;SDS011;22607;49.550;11.940;2023-06-24T14:01:18;7.10;;;3.00;;
36597;SDS011;22607;49.550;11.940;2023-06-24T14:03:46;7.65;;;3.00;;
36597;SDS011;22607;49.550;11.940;2023-06-24T14:06:14;7.75;;;3.50;;
36597;SDS011;22607;49.550;11.940;2023-06-24T14:08:42;7.38;;;3.28;;
36597;SDS011;22607;49.550;11.940;2023-06-24T14:11:09;7.30;;;2.70;;
36597;SDS011;22607;49.550;11.940;2023-06-24T14:13:36;9.23;;;3.30;;
36597;SDS011;22607;49.550;11.940;2023-06-24T14:16:03;8.05;;;3.40;;
36597;SDS011;22607;49.550;11.940;2023-06-24T14:18:30;7.60;;;3.30;;
36597;SDS011;22607;49.550;11.940;2023-06-24T14:21:01;7.80;;;3.50;;
36597;SDS011;22607;49.550;11.940;2023-06-24T14:23:30;7.07;;;3.03;;
36597;SDS011;22607;49.550;11.940;2023-06-24T14:25:58;8.55;;;3.40;;
36597;SDS011;22607;49.550;11.940;2023-06-24T14:28:27;7.97;;;3.60;;
36597;SDS011;22607;49.550;11.940;2023-06-24T14:30:54;8.68;;;3.30;;
36597;SDS011;22607;49.550;11.940;2023-06-24T14:33:21;7.70;;;2.92;;
36597;SDS011;22607;49.550;11.940;2023-06-24T14:35:47;7.32;;;2.92;;
36597;SDS011;22607;49.550;11.940;2023-06-24T14:38:14;7.60;;;3.20;;
36597;SDS011;22607;49.550;11.940;2023-06-24T14:40:41;7.97;;;3.72;;
36597;SDS011;22607;49.550;11.940;2023-06-24T14:43:07;7.78;;;3.20;;
36597;SDS011;22607;49.550;11.940;2023-06-24T14:45:34;8.13;;;3.45;;
36597;SDS011;22607;49.550;11.940;2023-06-24T14:48:00;7.47;;;3.20;;
36597;SDS011;22607;49.550;11.940;2023-06-24T14:50:27;8.60;;;3.22;;
36597;SDS011;22607;49.550;11.940;2023-06-24T14:52:53;7.30;;;2.75;;
36597;SDS011;22607;49.550;11.940;2023-06-24T14:55:20;7.60;;;3.13;;
36597;SDS011;22607;49.550;11.940;2023-06-24T14:57:47;7.60;;;3.33;;
36597;SDS011;22607;49.550;11.940;2023-06-24T15:00:14;6.97;;;3.00;;
36597;SDS011;22607;49.550;11.940;2023-06-24T15:02:41;7.47;;;2.70;;
36597;SDS011;22607;49.550;11.940;2023-06-24T15:05:08;9.27;;;3.53;;
36597;SDS011;22607;49.550;11.940;2023-06-24T15:07:35;7.60;;;3.33;;
36597;SDS011;22607;49.550;11.940;2023-06-24T15:10:01;8.23;;;3.70;;
36597;SDS011;22607;49.550;11.940;2023-06-24T15:12:28;8.23;;;3.55;;
36597;SDS011;22607;49.550;11.940;2023-06-24T15:14:55;7.38;;;3.22;;